sensor_id;sensor_type;location;lat;lon;timestamp;P1;durP1;ratioP1;P2;durP2;ratioP2
11606;SDS011;5859;42.706;23.352;2022-07-09T03:01:05;3.50;;;3.20;;
11606;SDS011;5859;42.706;23.352;2022-07-09T03:03:45;5.68;;;3.58;;
11606;SDS011;5859;42.706;23.352;2022-07-09T03:06:12;3.80;;;3.50;;
11606;SDS011;5859;42.706;23.352;2022-07-09T03:08:39;4.13;;;3.72;;
11606;SDS011;5859;42.706;23.352;2022-07-09T03:11:06;4.00;;;3.60;;
11606;SDS011;5859;42.706;23.352;2022-07-09T03:13:34;5.00;;;3.70;;
11606;SDS011;5859;42.706;23.352;2022-07-09T03:16:01;3.80;;;3.50;;
11606;SDS011;5859;42.706;23.352;2022-07-09T03:18:30;5.53;;;3.97;;
11606;SDS011;5859;42.706;23.352;2022-07-09T03:20:56;3.70;;;3.40;;
11606;SDS011;5859;42.706;23.352;2022-07-09T03:23:23;3.90;;;3.60;;
11606;SDS011;5859;42.706;23.352;2022-07-09T03:25:50;5.20;;;3.55;;
11606;SDS011;5859;42.706;23.352;2022-07-09T03:28:17;5.57;;;3.72;;
11606;SDS011;5859;42.706;23.352;2022-07-09T03:30:44;3.95;;;3.33;;
11606;SDS011;5859;42.706;23.352;2022-07-09T03:33:11;5.00;;;3.70;;
11606;SDS011;5859;42.706;23.352;2022-07-09T03:35:39;3.92;;;3.53;;
11606;SDS011;5859;42.706;23.352;2022-07-09T03:38:06;3.80;;;3.50;;
11606;SDS011;5859;42.706;23.352;2022-07-09T03:43:18;4.32;;;3.90;;
11606;SDS011;5859;42.706;23.352;2022-07-09T03:45:45;4.15;;;3.75;;
11606;SDS011;5859;42.706;23.352;2022-07-09T03:48:12;4.20;;;3.90;;
11606;SDS011;5859;42.706;23.352;2022-07-09T03:50:40;5.82;;;3.72;;
11606;SDS011;5859;42.706;23.352;2022-07-09T03:53:07;4.22;;;3.78;;
11606;SDS011;5859;42.706;23.352;2022-07-09T03:55:34;4.32;;;3.92;;
11606;SDS011;5859;42.706;23.352;2022-07-09T03:58:00;4.20;;;3.88;;
11606;SDS011;5859;42.706;23.352;2022-07-09T04:00:27;4.50;;;4.10;;
11606;SDS011;5859;42.706;23.352;2022-07-09T04:02:54;5.93;;;4.00;;
11606;SDS011;5859;42.706;23.352;2022-07-09T04:05:21;7.15;;;4.30;;
11606;SDS011;5859;42.706;23.352;2022-07-09T04:07:49;4.55;;;4.15;;
11606;SDS011;5859;42.706;23.352;2022-07-09T04:10:16;4.97;;;4.05;;
11606;SDS011;5859;42.706;23.352;2022-07-09T04:12:42;4.80;;;4.30;;
11606;SDS011;5859;42.706;23.352;2022-07-09T04:15:09;4.40;;;4.00;;
11606;SDS011;5859;42.706;23.352;2022-07-09T04:17:36;4.45;;;4.05;;
11606;SDS011;5859;42.706;23.352;2022-07-09T04:20:04;6.43;;;3.97;;
11606;SDS011;5859;42.706;23.352;2022-07-09T04:22:31;6.43;;;4.55;;
11606;SDS011;5859;42.706;23.352;2022-07-09T04:24:59;4.10;;;3.80;;
11606;SDS011;5859;42.706;23.352;2022-07-09T04:27:26;4.78;;;4.38;;
11606;SDS011;5859;42.706;23.352;2022-07-09T04:29:53;4.55;;;4.15;;
11606;SDS011;5859;42.706;23.352;2022-07-09T04:32:19;4.65;;;4.25;;
11606;SDS011;5859;42.706;23.352;2022-07-09T04:34:46;5.75;;;3.92;;
11606;SDS011;5859;42.706;23.352;2022-07-09T04:37:13;4.30;;;3.90;;
11606;SDS011;5859;42.706;23.352;2022-07-09T04:39:39;4.43;;;4.00;;
11606;SDS011;5859;42.706;23.352;2022-07-09T04:42:08;5.97;;;3.92;;
11606;SDS011;5859;42.706;23.352;2022-07-09T04:44:37;4.30;;;3.90;;
11606;SDS011;5859;42.706;23.352;2022-07-09T04:47:04;5.65;;;3.60;;
11606;SDS011;5859;42.706;23.352;2022-07-09T04:49:31;7.38;;;3.70;;
11606;SDS011;5859;42.706;23.352;2022-07-09T04:51:58;5.50;;;3.88;;
11606;SDS011;5859;42.706;23.352;2022-07-09T04:54:24;4.72;;;4.10;;
11606;SDS011;5859;42.706;23.352;2022-07-09T04:56:51;5.68;;;3.75;;
11606;SDS011;5859;42.706;23.352;2022-07-09T04:59:19;6.53;;;4.00;;
11606;SDS011;5859;42.706;23.352;2022-07-09T05:01:46;4.30;;;3.90;;
11606;SDS011;5859;42.706;23.352;2022-07-09T05:04:13;4.20;;;3.80;;
11606;SDS011;5859;42.706;23.352;2022-07-09T05:06:40;4.25;;;3.85;;
11606;SDS011;5859;42.706;23.352;2022-07-09T05:09:07;4.80;;;3.60;;
11606;SDS011;5859;42.706;23.352;2022-07-09T05:11:33;4.80;;;4.20;;
11606;SDS011;5859;42.706;23.352;2022-07-09T05:14:00;4.20;;;3.80;;
11606;SDS011;5859;42.706;23.352;2022-07-09T05:16:28;4.22;;;3.83;;
11606;SDS011;5859;42.706;23.352;2022-07-09T05:18:55;4.18;;;3.78;;
11606;SDS011;5859;42.706;23.352;2022-07-09T05:21:22;4.07;;;3.60;;
11606;SDS011;5859;42.706;23.352;2022-07-09T05:23:51;7.32;;;6.63;;
11606;SDS011;5859;42.706;23.352;2022-07-09T05:26:17;8.43;;;7.63;;
11606;SDS011;5859;42.706;23.352;2022-07-09T05:28:44;8.90;;;7.20;;
11606;SDS011;5859;42.706;23.352;2022-07-09T05:31:11;10.18;;;7.28;;
11606;SDS011;5859;42.706;23.352;2022-07-09T05:33:39;11.45;;;10.07;;
11606;SDS011;5859;42.706;23.352;2022-07-09T05:36:06;15.02;;;13.40;;
11606;SDS011;5859;42.706;23.352;2022-07-09T05:38:33;13.27;;;11.98;;
11606;SDS011;5859;42.706;23.352;2022-07-09T05:41:00;7.70;;;6.60;;
11606;SDS011;5859;42.706;23.352;2022-07-09T05:43:26;5.50;;;5.00;;
11606;SDS011;5859;42.706;23.352;2022-07-09T05:45:53;4.22;;;3.83;;
11606;SDS011;5859;42.706;23.352;2022-07-09T05:48:20;5.70;;;4.13;;
11606;SDS011;5859;42.706;23.352;2022-07-09T05:50:48;4.10;;;3.70;;
11606;SDS011;5859;42.706;23.352;2022-07-09T05:53:15;4.03;;;3.63;;
11606;SDS011;5859;42.706;23.352;2022-07-09T05:55:42;3.53;;;3.22;;
11606;SDS011;5859;42.706;23.352;2022-07-09T05:58:09;3.67;;;3.38;;
11606;SDS011;5859;42.706;23.352;2022-07-09T06:00:36;4.13;;;3.65;;
11606;SDS011;5859;42.706;23.352;2022-07-09T06:03:03;4.05;;;3.10;;
11606;SDS011;5859;42.706;23.352;2022-07-09T06:05:30;5.38;;;3.28;;
11606;SDS011;5859;42.706;23.352;2022-07-09T06:07:58;5.35;;;3.35;;
11606;SDS011;5859;42.706;23.352;2022-07-09T06:10:25;3.80;;;3.47;;
11606;SDS011;5859;42.706;23.352;2022-07-09T06:12:51;3.40;;;3.10;;
11606;SDS011;5859;42.706;23.352;2022-07-09T06:15:18;4.50;;;3.40;;
11606;SDS011;5859;42.706;23.352;2022-07-09T06:17:45;3.70;;;3.40;;
11606;SDS011;5859;42.706;23.352;2022-07-09T06:20:11;3.58;;;3.28;;
11606;SDS011;5859;42.706;23.352;2022-07-09T06:22:38;3.65;;;3.35;;
11606;SDS011;5859;42.706;23.352;2022-07-09T06:25:07;6.97;;;3.42;;
11606;SDS011;5859;42.706;23.352;2022-07-09T06:27:34;3.95;;;3.65;;
11606;SDS011;5859;42.706;23.352;2022-07-09T06:30:01;3.95;;;3.35;;
11606;SDS011;5859;42.706;23.352;2022-07-09T06:32:29;3.92;;;3.53;;
11606;SDS011;5859;42.706;23.352;2022-07-09T06:34:55;3.63;;;3.30;;
11606;SDS011;5859;42.706;23.352;2022-07-09T06:37:22;4.20;;;3.80;;
11606;SDS011;5859;42.706;23.352;2022-07-09T06:39:49;3.80;;;3.50;;
11606;SDS011;5859;42.706;23.352;2022-07-09T06:42:22;4.05;;;3.67;;
11606;SDS011;5859;42.706;23.352;2022-07-09T06:44:48;3.80;;;3.50;;
11606;SDS011;5859;42.706;23.352;2022-07-09T06:47:15;4.20;;;3.80;;
11606;SDS011;5859;42.706;23.352;2022-07-09T06:49:43;3.42;;;3.13;;
11606;SDS011;5859;42.706;23.352;2022-07-09T06:52:10;4.40;;;4.00;;
11606;SDS011;5859;42.706;23.352;2022-07-09T06:54:37;3.58;;;3.28;;
11606;SDS011;5859;42.706;23.352;2022-07-09T06:57:04;4.00;;;3.60;;
11606;SDS011;5859;42.706;23.352;2022-07-09T06:59:33;4.60;;;4.20;;
11606;SDS011;5859;42.706;23.352;2022-07-09T07:02:01;4.70;;;4.20;;
11606;SDS011;5859;42.706;23.352;2022-07-09T07:04:28;4.30;;;3.90;;
11606;SDS011;5859;42.706;23.352;2022-07-09T07:06:55;7.07;;;4.90;;
11606;SDS011;5859;42.706;23.352;2022-07-09T07:09:21;5.20;;;4.30;;
11606;SDS011;5859;42.706;23.352;2022-07-09T07:11:48;5.32;;;3.67;;
11606;SDS011;5859;42.706;23.352;2022-07-09T07:14:15;5.45;;;3.92;;
11606;SDS011;5859;42.706;23.352;2022-07-09T07:16:44;4.28;;;3.80;;
11606;SDS011;5859;42.706;23.352;2022-07-09T07:19:18;4.53;;;3.78;;
11606;SDS011;5859;42.706;23.352;2022-07-09T07:21:46;4.72;;;4.32;;
11606;SDS011;5859;42.706;23.352;2022-07-09T07:24:13;5.88;;;4.47;;
11606;SDS011;5859;42.706;23.352;2022-07-09T07:26:39;4.53;;;4.10;;
11606;SDS011;5859;42.706;23.352;2022-07-09T07:29:06;4.43;;;3.72;;
11606;SDS011;5859;42.706;23.352;2022-07-09T07:31:33;4.35;;;3.95;;
11606;SDS011;5859;42.706;23.352;2022-07-09T07:34:01;4.05;;;3.60;;
11606;SDS011;5859;42.706;23.352;2022-07-09T07:36:28;3.92;;;3.60;;
11606;SDS011;5859;42.706;23.352;2022-07-09T07:38:55;3.70;;;3.40;;
11606;SDS011;5859;42.706;23.352;2022-07-09T07:41:21;3.90;;;3.55;;
11606;SDS011;5859;42.706;23.352;2022-07-09T07:43:48;4.32;;;3.58;;
11606;SDS011;5859;42.706;23.352;2022-07-09T07:46:15;4.13;;;3.72;;
11606;SDS011;5859;42.706;23.352;2022-07-09T07:48:42;3.72;;;3.42;;
11606;SDS011;5859;42.706;23.352;2022-07-09T07:51:10;4.28;;;3.88;;
11606;SDS011;5859;42.706;23.352;2022-07-09T07:53:37;3.75;;;3.45;;
11606;SDS011;5859;42.706;23.352;2022-07-09T07:56:04;4.25;;;3.00;;
11606;SDS011;5859;42.706;23.352;2022-07-09T07:58:32;3.47;;;3.17;;
11606;SDS011;5859;42.706;23.352;2022-07-09T08:01:00;3.47;;;3.17;;
11606;SDS011;5859;42.706;23.352;2022-07-09T08:03:27;3.47;;;3.10;;
11606;SDS011;5859;42.706;23.352;2022-07-09T08:05:54;3.95;;;3.65;;
11606;SDS011;5859;42.706;23.352;2022-07-09T08:08:22;3.63;;;3.33;;
11606;SDS011;5859;42.706;23.352;2022-07-09T08:10:49;4.97;;;4.10;;
11606;SDS011;5859;42.706;23.352;2022-07-09T08:13:15;5.30;;;4.72;;
11606;SDS011;5859;42.706;23.352;2022-07-09T08:15:42;3.60;;;3.30;;
11606;SDS011;5859;42.706;23.352;2022-07-09T08:18:10;3.70;;;3.33;;
11606;SDS011;5859;42.706;23.352;2022-07-09T08:20:39;3.75;;;3.45;;
11606;SDS011;5859;42.706;23.352;2022-07-09T08:23:06;3.65;;;3.30;;
11606;SDS011;5859;42.706;23.352;2022-07-09T08:25:34;5.20;;;3.72;;
11606;SDS011;5859;42.706;23.352;2022-07-09T08:28:01;3.30;;;3.00;;
11606;SDS011;5859;42.706;23.352;2022-07-09T08:30:28;4.97;;;3.15;;
11606;SDS011;5859;42.706;23.352;2022-07-09T08:32:55;3.00;;;2.80;;
11606;SDS011;5859;42.706;23.352;2022-07-09T08:35:22;6.20;;;3.35;;
11606;SDS011;5859;42.706;23.352;2022-07-09T08:37:50;3.50;;;3.17;;
11606;SDS011;5859;42.706;23.352;2022-07-09T08:40:17;3.45;;;3.15;;
11606;SDS011;5859;42.706;23.352;2022-07-09T08:42:45;3.88;;;3.35;;
11606;SDS011;5859;42.706;23.352;2022-07-09T08:45:12;3.42;;;3.13;;
11606;SDS011;5859;42.706;23.352;2022-07-09T08:47:40;3.67;;;3.38;;
11606;SDS011;5859;42.706;23.352;2022-07-09T08:50:07;3.83;;;3.50;;
11606;SDS011;5859;42.706;23.352;2022-07-09T08:52:35;4.43;;;4.03;;
11606;SDS011;5859;42.706;23.352;2022-07-09T08:55:03;5.45;;;4.95;;
11606;SDS011;5859;42.706;23.352;2022-07-09T08:57:32;5.00;;;3.78;;
11606;SDS011;5859;42.706;23.352;2022-07-09T09:00:07;4.55;;;3.40;;
11606;SDS011;5859;42.706;23.352;2022-07-09T09:02:35;6.75;;;3.70;;
11606;SDS011;5859;42.706;23.352;2022-07-09T09:05:07;5.38;;;3.50;;
11606;SDS011;5859;42.706;23.352;2022-07-09T09:07:38;4.47;;;3.85;;
11606;SDS011;5859;42.706;23.352;2022-07-09T09:10:05;5.80;;;3.47;;
11606;SDS011;5859;42.706;23.352;2022-07-09T09:12:32;4.75;;;4.03;;
11606;SDS011;5859;42.706;23.352;2022-07-09T09:14:59;7.38;;;6.57;;
11606;SDS011;5859;42.706;23.352;2022-07-09T09:17:31;7.55;;;4.20;;
11606;SDS011;5859;42.706;23.352;2022-07-09T09:19:58;5.35;;;4.20;;
11606;SDS011;5859;42.706;23.352;2022-07-09T09:22:26;4.22;;;3.83;;
11606;SDS011;5859;42.706;23.352;2022-07-09T09:24:52;4.43;;;4.05;;
11606;SDS011;5859;42.706;23.352;2022-07-09T09:27:26;6.78;;;5.57;;
11606;SDS011;5859;42.706;23.352;2022-07-09T09:29:56;4.60;;;4.20;;
11606;SDS011;5859;42.706;23.352;2022-07-09T09:32:24;6.80;;;4.95;;
11606;SDS011;5859;42.706;23.352;2022-07-09T09:34:52;4.93;;;4.43;;
11606;SDS011;5859;42.706;23.352;2022-07-09T09:37:26;5.40;;;4.40;;
11606;SDS011;5859;42.706;23.352;2022-07-09T09:39:54;10.15;;;5.25;;
11606;SDS011;5859;42.706;23.352;2022-07-09T09:42:21;8.25;;;4.88;;
11606;SDS011;5859;42.706;23.352;2022-07-09T09:44:50;5.20;;;4.63;;
11606;SDS011;5859;42.706;23.352;2022-07-09T09:47:18;5.35;;;4.85;;
11606;SDS011;5859;42.706;23.352;2022-07-09T09:49:49;5.32;;;4.82;;
11606;SDS011;5859;42.706;23.352;2022-07-09T09:52:18;4.82;;;4.43;;
11606;SDS011;5859;42.706;23.352;2022-07-09T09:54:46;5.03;;;4.53;;
11606;SDS011;5859;42.706;23.352;2022-07-09T09:57:14;4.55;;;4.15;;
11606;SDS011;5859;42.706;23.352;2022-07-09T09:59:42;5.53;;;5.00;;
11606;SDS011;5859;42.706;23.352;2022-07-09T10:02:11;7.60;;;4.90;;
11606;SDS011;5859;42.706;23.352;2022-07-09T10:04:39;7.63;;;5.82;;
11606;SDS011;5859;42.706;23.352;2022-07-09T10:07:08;7.68;;;6.45;;
11606;SDS011;5859;42.706;23.352;2022-07-09T10:09:38;10.43;;;5.85;;
11606;SDS011;5859;42.706;23.352;2022-07-09T10:12:05;7.60;;;5.40;;
11606;SDS011;5859;42.706;23.352;2022-07-09T10:14:34;6.50;;;5.07;;
11606;SDS011;5859;42.706;23.352;2022-07-09T10:17:09;4.93;;;4.43;;
11606;SDS011;5859;42.706;23.352;2022-07-09T10:19:38;4.70;;;4.30;;
11606;SDS011;5859;42.706;23.352;2022-07-09T10:22:05;6.05;;;4.35;;
11606;SDS011;5859;42.706;23.352;2022-07-09T10:24:32;4.45;;;3.78;;
11606;SDS011;5859;42.706;23.352;2022-07-09T10:27:04;4.80;;;3.97;;
11606;SDS011;5859;42.706;23.352;2022-07-09T10:29:32;4.10;;;3.80;;
11606;SDS011;5859;42.706;23.352;2022-07-09T10:32:01;3.97;;;3.53;;
11606;SDS011;5859;42.706;23.352;2022-07-09T10:34:36;3.95;;;3.65;;
11606;SDS011;5859;42.706;23.352;2022-07-09T10:37:11;3.83;;;3.45;;
11606;SDS011;5859;42.706;23.352;2022-07-09T10:39:38;4.20;;;3.63;;
11606;SDS011;5859;42.706;23.352;2022-07-09T10:42:16;2.60;;;2.40;;
11606;SDS011;5859;42.706;23.352;2022-07-09T10:44:45;3.55;;;3.25;;
11606;SDS011;5859;42.706;23.352;2022-07-09T10:47:14;4.47;;;3.90;;
11606;SDS011;5859;42.706;23.352;2022-07-09T10:49:41;4.22;;;2.97;;
11606;SDS011;5859;42.706;23.352;2022-07-09T10:52:08;17.70;;;11.00;;
11606;SDS011;5859;42.706;23.352;2022-07-09T10:54:45;3.63;;;3.08;;
11606;SDS011;5859;42.706;23.352;2022-07-09T10:57:22;3.40;;;2.50;;
11606;SDS011;5859;42.706;23.352;2022-07-09T10:59:50;3.38;;;3.08;;
11606;SDS011;5859;42.706;23.352;2022-07-09T11:02:17;2.67;;;2.47;;
11606;SDS011;5859;42.706;23.352;2022-07-09T11:04:58;2.88;;;2.25;;
11606;SDS011;5859;42.706;23.352;2022-07-09T11:07:25;2.78;;;2.58;;
11606;SDS011;5859;42.706;23.352;2022-07-09T11:09:53;3.17;;;2.28;;
11606;SDS011;5859;42.706;23.352;2022-07-09T11:12:20;2.40;;;2.20;;
11606;SDS011;5859;42.706;23.352;2022-07-09T11:14:49;4.45;;;2.38;;
11606;SDS011;5859;42.706;23.352;2022-07-09T11:17:17;2.47;;;2.28;;
11606;SDS011;5859;42.706;23.352;2022-07-09T11:19:45;2.85;;;2.65;;
11606;SDS011;5859;42.706;23.352;2022-07-09T11:22:12;3.55;;;2.55;;
11606;SDS011;5859;42.706;23.352;2022-07-09T11:24:39;2.90;;;2.50;;
11606;SDS011;5859;42.706;23.352;2022-07-09T11:27:06;2.50;;;2.30;;
11606;SDS011;5859;42.706;23.352;2022-07-09T11:29:35;2.50;;;2.30;;
11606;SDS011;5859;42.706;23.352;2022-07-09T11:32:05;2.55;;;2.35;;
11606;SDS011;5859;42.706;23.352;2022-07-09T11:34:32;2.70;;;2.50;;
11606;SDS011;5859;42.706;23.352;2022-07-09T11:36:59;2.80;;;2.60;;
11606;SDS011;5859;42.706;23.352;2022-07-09T11:39:26;2.55;;;2.33;;
11606;SDS011;5859;42.706;23.352;2022-07-09T11:41:54;6.38;;;2.22;;
11606;SDS011;5859;42.706;23.352;2022-07-09T11:44:22;2.55;;;2.35;;
11606;SDS011;5859;42.706;23.352;2022-07-09T11:47:07;3.28;;;2.50;;
11606;SDS011;5859;42.706;23.352;2022-07-09T11:49:35;2.53;;;2.33;;
11606;SDS011;5859;42.706;23.352;2022-07-09T11:52:04;3.92;;;2.80;;
11606;SDS011;5859;42.706;23.352;2022-07-09T11:54:53;2.83;;;2.40;;
11606;SDS011;5859;42.706;23.352;2022-07-09T11:57:20;2.80;;;2.20;;
11606;SDS011;5859;42.706;23.352;2022-07-09T11:59:47;3.38;;;2.88;;
11606;SDS011;5859;42.706;23.352;2022-07-09T12:02:23;4.10;;;3.47;;
11606;SDS011;5859;42.706;23.352;2022-07-09T12:04:50;4.68;;;3.10;;
11606;SDS011;5859;42.706;23.352;2022-07-09T12:07:17;2.95;;;2.30;;
11606;SDS011;5859;42.706;23.352;2022-07-09T12:09:44;2.58;;;2.38;;
11606;SDS011;5859;42.706;23.352;2022-07-09T12:12:11;2.40;;;2.20;;
11606;SDS011;5859;42.706;23.352;2022-07-09T12:14:38;5.93;;;3.72;;
11606;SDS011;5859;42.706;23.352;2022-07-09T12:17:04;5.00;;;3.97;;
11606;SDS011;5859;42.706;23.352;2022-07-09T12:19:32;4.70;;;3.65;;
11606;SDS011;5859;42.706;23.352;2022-07-09T12:21:59;4.35;;;3.50;;
11606;SDS011;5859;42.706;23.352;2022-07-09T12:24:26;4.78;;;2.40;;
11606;SDS011;5859;42.706;23.352;2022-07-09T12:26:52;2.20;;;2.00;;
11606;SDS011;5859;42.706;23.352;2022-07-09T12:29:19;3.30;;;2.15;;
11606;SDS011;5859;42.706;23.352;2022-07-09T12:31:46;2.03;;;1.92;;
11606;SDS011;5859;42.706;23.352;2022-07-09T12:34:12;2.22;;;2.03;;
11606;SDS011;5859;42.706;23.352;2022-07-09T12:36:41;2.38;;;2.22;;
11606;SDS011;5859;42.706;23.352;2022-07-09T12:39:07;1.90;;;1.80;;
11606;SDS011;5859;42.706;23.352;2022-07-09T12:41:34;2.55;;;2.35;;
11606;SDS011;5859;42.706;23.352;2022-07-09T12:44:01;3.33;;;2.50;;
11606;SDS011;5859;42.706;23.352;2022-07-09T12:46:27;2.40;;;2.20;;
11606;SDS011;5859;42.706;23.352;2022-07-09T12:48:54;2.65;;;2.45;;
11606;SDS011;5859;42.706;23.352;2022-07-09T12:51:21;3.53;;;2.10;;
11606;SDS011;5859;42.706;23.352;2022-07-09T12:53:49;2.67;;;2.08;;
11606;SDS011;5859;42.706;23.352;2022-07-09T12:56:16;3.67;;;2.20;;
11606;SDS011;5859;42.706;23.352;2022-07-09T12:58:43;3.00;;;2.67;;
11606;SDS011;5859;42.706;23.352;2022-07-09T13:01:10;10.43;;;7.53;;
11606;SDS011;5859;42.706;23.352;2022-07-09T13:03:36;2.90;;;2.70;;
11606;SDS011;5859;42.706;23.352;2022-07-09T13:06:03;2.60;;;2.40;;
11606;SDS011;5859;42.706;23.352;2022-07-09T13:08:51;4.80;;;2.92;;
11606;SDS011;5859;42.706;23.352;2022-07-09T13:11:18;2.95;;;2.65;;
11606;SDS011;5859;42.706;23.352;2022-07-09T13:13:45;3.20;;;2.90;;
11606;SDS011;5859;42.706;23.352;2022-07-09T13:16:12;2.83;;;2.63;;
11606;SDS011;5859;42.706;23.352;2022-07-09T13:18:39;3.05;;;2.40;;
11606;SDS011;5859;42.706;23.352;2022-07-09T13:21:06;2.53;;;2.33;;
11606;SDS011;5859;42.706;23.352;2022-07-09T13:23:32;2.50;;;2.30;;
11606;SDS011;5859;42.706;23.352;2022-07-09T13:26:00;2.58;;;2.38;;
11606;SDS011;5859;42.706;23.352;2022-07-09T13:28:28;2.60;;;2.40;;
11606;SDS011;5859;42.706;23.352;2022-07-09T13:30:54;2.38;;;2.25;;
11606;SDS011;5859;42.706;23.352;2022-07-09T13:33:21;4.03;;;2.35;;
11606;SDS011;5859;42.706;23.352;2022-07-09T13:35:48;2.40;;;2.20;;
11606;SDS011;5859;42.706;23.352;2022-07-09T13:38:15;4.43;;;2.38;;
11606;SDS011;5859;42.706;23.352;2022-07-09T13:40:41;3.50;;;2.47;;
11606;SDS011;5859;42.706;23.352;2022-07-09T13:43:10;2.40;;;2.20;;
11606;SDS011;5859;42.706;23.352;2022-07-09T13:45:36;2.60;;;2.40;;
11606;SDS011;5859;42.706;23.352;2022-07-09T13:48:04;4.05;;;3.10;;
11606;SDS011;5859;42.706;23.352;2022-07-09T13:50:31;2.80;;;2.60;;
11606;SDS011;5859;42.706;23.352;2022-07-09T13:52:58;2.47;;;2.28;;
11606;SDS011;5859;42.706;23.352;2022-07-09T13:55:26;3.13;;;2.58;;
11606;SDS011;5859;42.706;23.352;2022-07-09T13:57:53;2.88;;;2.65;;
11606;SDS011;5859;42.706;23.352;2022-07-09T14:00:21;3.53;;;3.22;;
11606;SDS011;5859;42.706;23.352;2022-07-09T14:02:48;12.55;;;7.32;;
11606;SDS011;5859;42.706;23.352;2022-07-09T14:05:15;3.35;;;3.05;;
11606;SDS011;5859;42.706;23.352;2022-07-09T14:07:42;3.50;;;3.20;;
11606;SDS011;5859;42.706;23.352;2022-07-09T14:10:09;4.95;;;2.28;;
11606;SDS011;5859;42.706;23.352;2022-07-09T14:12:36;9.05;;;3.22;;
11606;SDS011;5859;42.706;23.352;2022-07-09T14:15:03;7.35;;;4.75;;
11606;SDS011;5859;42.706;23.352;2022-07-09T14:17:33;2.80;;;2.50;;
11606;SDS011;5859;42.706;23.352;2022-07-09T14:20:00;3.28;;;2.88;;
11606;SDS011;5859;42.706;23.352;2022-07-09T14:22:27;2.95;;;2.70;;
11606;SDS011;5859;42.706;23.352;2022-07-09T14:24:54;2.53;;;2.33;;
11606;SDS011;5859;42.706;23.352;2022-07-09T14:27:21;4.43;;;3.78;;
11606;SDS011;5859;42.706;23.352;2022-07-09T14:29:48;2.70;;;2.50;;
11606;SDS011;5859;42.706;23.352;2022-07-09T14:32:16;3.22;;;2.70;;
11606;SDS011;5859;42.706;23.352;2022-07-09T14:34:44;3.67;;;2.45;;
11606;SDS011;5859;42.706;23.352;2022-07-09T14:37:10;2.70;;;2.50;;
11606;SDS011;5859;42.706;23.352;2022-07-09T14:39:37;5.13;;;3.85;;
11606;SDS011;5859;42.706;23.352;2022-07-09T14:42:04;3.28;;;2.97;;
11606;SDS011;5859;42.706;23.352;2022-07-09T14:44:31;3.53;;;2.53;;
11606;SDS011;5859;42.706;23.352;2022-07-09T14:46:57;3.70;;;2.40;;
11606;SDS011;5859;42.706;23.352;2022-07-09T14:49:25;3.03;;;2.42;;
11606;SDS011;5859;42.706;23.352;2022-07-09T14:51:53;2.72;;;2.53;;
11606;SDS011;5859;42.706;23.352;2022-07-09T14:54:20;2.70;;;2.50;;
11606;SDS011;5859;42.706;23.352;2022-07-09T14:56:47;3.17;;;2.17;;
11606;SDS011;5859;42.706;23.352;2022-07-09T14:59:14;3.15;;;2.80;;
11606;SDS011;5859;42.706;23.352;2022-07-09T15:01:41;3.88;;;2.70;;
11606;SDS011;5859;42.706;23.352;2022-07-09T15:04:08;2.90;;;2.70;;
11606;SDS011;5859;42.706;23.352;2022-07-09T15:06:35;2.92;;;2.35;;
11606;SDS011;5859;42.706;23.352;2022-07-09T15:09:03;3.33;;;2.83;;
11606;SDS011;5859;42.706;23.352;2022-07-09T15:11:30;5.63;;;2.65;;
11606;SDS011;5859;42.706;23.352;2022-07-09T15:13:57;3.03;;;2.75;;
11606;SDS011;5859;42.706;23.352;2022-07-09T15:16:24;3.75;;;3.38;;
11606;SDS011;5859;42.706;23.352;2022-07-09T15:18:50;3.30;;;3.00;;
11606;SDS011;5859;42.706;23.352;2022-07-09T15:21:17;4.63;;;3.55;;
11606;SDS011;5859;42.706;23.352;2022-07-09T15:23:44;5.03;;;3.70;;
11606;SDS011;5859;42.706;23.352;2022-07-09T15:26:12;5.07;;;4.57;;
11606;SDS011;5859;42.706;23.352;2022-07-09T15:28:39;7.30;;;4.13;;
11606;SDS011;5859;42.706;23.352;2022-07-09T15:31:05;4.80;;;3.17;;
11606;SDS011;5859;42.706;23.352;2022-07-09T15:33:32;5.15;;;4.07;;
11606;SDS011;5859;42.706;23.352;2022-07-09T15:35:59;3.60;;;3.30;;
11606;SDS011;5859;42.706;23.352;2022-07-09T15:38:26;4.13;;;3.10;;
11606;SDS011;5859;42.706;23.352;2022-07-09T15:40:53;3.20;;;2.60;;
11606;SDS011;5859;42.706;23.352;2022-07-09T15:43:21;4.25;;;3.70;;
11606;SDS011;5859;42.706;23.352;2022-07-09T15:45:48;3.47;;;3.17;;
11606;SDS011;5859;42.706;23.352;2022-07-09T15:48:14;4.25;;;3.30;;
11606;SDS011;5859;42.706;23.352;2022-07-09T15:50:43;4.07;;;3.55;;
11606;SDS011;5859;42.706;23.352;2022-07-09T15:53:10;7.47;;;6.35;;
11606;SDS011;5859;42.706;23.352;2022-07-09T15:55:38;3.85;;;3.45;;
11606;SDS011;5859;42.706;23.352;2022-07-09T15:58:05;5.65;;;4.00;;
11606;SDS011;5859;42.706;23.352;2022-07-09T16:00:33;4.07;;;3.67;;
11606;SDS011;5859;42.706;23.352;2022-07-09T16:03:00;8.10;;;3.22;;
11606;SDS011;5859;42.706;23.352;2022-07-09T16:05:28;5.80;;;4.22;;
11606;SDS011;5859;42.706;23.352;2022-07-09T16:07:58;5.07;;;4.20;;
11606;SDS011;5859;42.706;23.352;2022-07-09T16:10:25;10.45;;;6.72;;
11606;SDS011;5859;42.706;23.352;2022-07-09T16:12:51;4.85;;;3.30;;
11606;SDS011;5859;42.706;23.352;2022-07-09T16:15:19;3.58;;;3.28;;
11606;SDS011;5859;42.706;23.352;2022-07-09T16:17:47;7.93;;;5.85;;
11606;SDS011;5859;42.706;23.352;2022-07-09T16:20:14;4.57;;;4.10;;
11606;SDS011;5859;42.706;23.352;2022-07-09T16:22:41;4.30;;;3.90;;
11606;SDS011;5859;42.706;23.352;2022-07-09T16:25:08;6.53;;;4.35;;
11606;SDS011;5859;42.706;23.352;2022-07-09T16:27:35;6.03;;;4.85;;
11606;SDS011;5859;42.706;23.352;2022-07-09T16:30:02;6.13;;;5.53;;
11606;SDS011;5859;42.706;23.352;2022-07-09T16:32:30;3.53;;;3.22;;
11606;SDS011;5859;42.706;23.352;2022-07-09T16:34:58;3.53;;;3.22;;
11606;SDS011;5859;42.706;23.352;2022-07-09T16:37:25;7.32;;;5.55;;
11606;SDS011;5859;42.706;23.352;2022-07-09T16:39:55;3.65;;;3.35;;
11606;SDS011;5859;42.706;23.352;2022-07-09T16:42:23;5.40;;;3.35;;
11606;SDS011;5859;42.706;23.352;2022-07-09T16:44:56;3.60;;;3.30;;
11606;SDS011;5859;42.706;23.352;2022-07-09T16:47:23;3.42;;;3.13;;
11606;SDS011;5859;42.706;23.352;2022-07-09T16:49:49;4.40;;;3.30;;
11606;SDS011;5859;42.706;23.352;2022-07-09T16:52:17;5.88;;;3.25;;
11606;SDS011;5859;42.706;23.352;2022-07-09T16:54:44;6.15;;;3.60;;
11606;SDS011;5859;42.706;23.352;2022-07-09T16:57:18;5.32;;;3.85;;
11606;SDS011;5859;42.706;23.352;2022-07-09T16:59:44;4.43;;;3.75;;
11606;SDS011;5859;42.706;23.352;2022-07-09T17:02:11;6.10;;;4.00;;
11606;SDS011;5859;42.706;23.352;2022-07-09T17:04:38;4.53;;;4.13;;
11606;SDS011;5859;42.706;23.352;2022-07-09T17:07:05;4.80;;;4.00;;
11606;SDS011;5859;42.706;23.352;2022-07-09T17:09:33;4.53;;;4.13;;
11606;SDS011;5859;42.706;23.352;2022-07-09T17:12:01;4.32;;;3.92;;
11606;SDS011;5859;42.706;23.352;2022-07-09T17:14:28;5.20;;;4.38;;
11606;SDS011;5859;42.706;23.352;2022-07-09T17:16:55;5.15;;;4.45;;
11606;SDS011;5859;42.706;23.352;2022-07-09T17:19:21;7.15;;;4.50;;
11606;SDS011;5859;42.706;23.352;2022-07-09T17:21:48;5.53;;;4.35;;
11606;SDS011;5859;42.706;23.352;2022-07-09T17:24:15;6.25;;;4.70;;
11606;SDS011;5859;42.706;23.352;2022-07-09T17:26:44;6.07;;;5.03;;
11606;SDS011;5859;42.706;23.352;2022-07-09T17:29:10;6.43;;;5.07;;
11606;SDS011;5859;42.706;23.352;2022-07-09T17:31:37;5.30;;;4.80;;
11606;SDS011;5859;42.706;23.352;2022-07-09T17:34:04;6.10;;;5.50;;
11606;SDS011;5859;42.706;23.352;2022-07-09T17:36:31;5.65;;;4.72;;
11606;SDS011;5859;42.706;23.352;2022-07-09T17:38:57;7.78;;;5.47;;
11606;SDS011;5859;42.706;23.352;2022-07-09T17:41:24;7.80;;;5.47;;
11606;SDS011;5859;42.706;23.352;2022-07-09T17:43:52;6.22;;;5.63;;
11606;SDS011;5859;42.706;23.352;2022-07-09T17:46:19;7.38;;;5.22;;
11606;SDS011;5859;42.706;23.352;2022-07-09T17:48:46;6.93;;;5.63;;
11606;SDS011;5859;42.706;23.352;2022-07-09T17:51:13;7.88;;;4.85;;
11606;SDS011;5859;42.706;23.352;2022-07-09T17:53:39;5.80;;;5.25;;